• Join FlightAware (Why Join?)
  • Login
  • US Flag 
11:13AM EDT


 

Airport Tracker/Info


-or-


 

Live Flight TrackerFlight Track Log ✈ ASQ6041 ✈ 24-Sep-2013 ✈ KLNK - KDEN

Flight Track Log - Related Links

Times and Time Zones

All times are in EDT time to prevent confusion due to time zone crossing. See the ASQ6041 flight status page for this flight to view local times or setup timezone preferences in your user account.

Time Position Orientation Groundspeed Altitude Reporting Facility
EDT Latitude Longitude Course Direction KTS MPH feet Rate Location/Type
02:52PM 40.8669 -96.7761 320° Northwest 157 181 36,000  Level Minneapolis Center
02:53PM 40.8928 -96.8369 299° West 198 228 4,200 -14,280 Descending Minneapolis Center
02:54PM 40.8769 -96.9344 258° West 272 313 6,600 2,700 Climbing Minneapolis Center
02:55PM 40.8166 -97.1357 253° West  Level Estimated
02:55PM 40.8553 -97.0561 257° West 282 325 9,900  Level Minneapolis Center
02:56PM 40.8069 -97.2614 264° West  Level FlightAware Approximate
02:56PM 40.8336 -97.1775 257° West 332 382 10,600  Level Minneapolis Center
02:57PM 40.7951 -97.3868 257° West  Level Estimated
02:57PM 40.8089 -97.3122 256° West 371 427 12,000  Level Minneapolis Center
02:58PM 40.7847 -97.4531 257° West 379 436 14,500 2,220 Climbing Minneapolis Center
02:59PM 40.7603 -97.5828 256° West 369 425 16,600 1,740 Climbing Minneapolis Center
03:00PM 40.7381 -97.7106 257° West 360 414 18,200 1,320 Climbing Minneapolis Center
03:01PM 40.7139 -97.8425 256° West 366 421 19,400 1,140 Climbing Minneapolis Center
03:03PM 40.6886 -97.9806 256° West 380 437 20,600 1,200 Climbing Minneapolis Center
03:04PM 40.6575 -98.1481 256° West 389 448 22,000 1,200 Climbing Minneapolis Center
03:05PM 40.6306 -98.2889 256° West 393 452 23,100 1,080 Climbing Minneapolis Center
03:06PM 40.6053 -98.4300 257° West 394 453 24,300 1,140 Climbing Minneapolis Center
03:07PM 40.6161 -98.5692 276° West 382 440 25,500 1,080 Climbing Minneapolis Center
03:08PM 40.6294 -98.7089 277° West 382 440 26,600 1,080 Climbing Minneapolis Center
03:09PM 40.6411 -98.8492 276° West 382 440 27,800 1,080 Climbing Minneapolis Center
03:10PM 40.6533 -98.9864 277° West 378 435 28,900 1,080 Climbing Minneapolis Center
03:11PM 40.6658 -99.1247 277° West 378 435 30,100 1,200 Climbing Minneapolis Center
03:12PM 40.6797 -99.2911 276° West 379 436 31,500 1,200 Climbing Minneapolis Center
03:13PM 40.6908 -99.4317 276° West 381 438 32,600 1,080 Climbing Minneapolis Center
03:14PM 40.7033 -99.5711 277° West 382 440 33,800 1,080 Climbing Minneapolis Center
03:15PM 40.7147 -99.7089 276° West 379 436 34,900 1,020 Climbing Minneapolis Center
03:16PM 40.7261 -99.8450 276° West 375 432 36,000 480 Climbing Minneapolis Center
03:17PM 40.7358 -99.9828 275° West 376 433 36,000  Level Minneapolis Center
03:18PM 40.7472 -100.1294 276° West 392 451 36,000  Level Minneapolis Center
03:19PM 40.7592 -100.2800 276° West 403 464 36,000  Level Minneapolis Center
03:20PM 40.7739 -100.4569 276° West 405 466 36,000  Level Minneapolis Center
03:21PM 40.7844 -100.6028 276° West 403 464 36,000  Level Minneapolis Center
03:23PM 40.7567 -100.8242 261° West 423 487 36,000  Level Denver Center
03:24PM 40.7361 -100.9631 259° West 404 465 36,000  Level Denver Center
03:25PM 40.7050 -101.1486 258° West 404 465 36,000  Level Denver Center
03:26PM 40.6808 -101.2875 257° West 406 467 36,000  Level Denver Center
03:27PM 40.6608 -101.4033 257° West 406 467 36,000  Level Denver Center
03:28PM 40.6283 -101.5886 257° West 407 468 36,000  Level Denver Center
03:29PM 40.5986 -101.7506 256° West 407 468 36,000  Level Denver Center
03:30PM 40.5736 -101.8892 257° West 408 470 36,000  Level Denver Center
03:31PM 40.5469 -102.0267 256° West 406 467 36,000  Level Denver Center
03:32PM 40.5133 -102.2106 257° West 405 466 36,000  Level Denver Center
03:33PM 40.4836 -102.3711 256° West 405 466 36,000  Level Denver Center
03:34PM 40.4583 -102.5092 257° West 404 465 36,000  Level Denver Center
03:35PM 40.4281 -102.6689 256° West 405 466 36,000 -540 Level Denver Center
03:36PM 40.4056 -102.7928 257° West 404 465 34,900 -1,800 Descending Denver Center
03:37PM 40.3739 -102.9589 256° West 392 451 32,300 -2,220 Descending Denver Center
03:39PM 40.3481 -103.0994 256° West 398 458 30,300 -1,920 Descending Denver Center
03:40PM 40.3208 -103.2353 255° West 390 449 28,300 -1,980 Descending Denver Center
03:41PM 40.2958 -103.3681 256° West 378 435 26,300 -1,980 Descending Denver Center
03:42PM 40.2686 -103.5025 255° West 382 440 24,300 -1,980 Descending Denver Center
03:43PM 40.2431 -103.6333 256° West 371 427 22,300 -2,160 Descending Denver Center
03:44PM 40.2147 -103.7775 256° West 346 398 19,900 -1,800 Descending Denver Center
03:45PM 40.2028 -103.8906 262° West 315 362 18,600 -1,080 Descending Denver Center
03:46PM 40.2161 -104.0122 278° West 316 364 17,700 -1,260 Descending Denver Center
03:47PM 40.2256 -104.1225 276° West 308 354 16,100 -1,980 Descending Denver Center
03:48PM 40.2361 -104.2306 277° West 302 348 13,700 -1,980 Descending Denver Center
03:49PM 40.2464 -104.3431 277° West 293 337 12,100 -1,080 Descending Denver Center
03:50PM 40.2428 -104.4306 267° West 251 289 11,500 -840 Descending Denver Center
03:51PM 40.2178 -104.5175 249° West 238 274 10,400 -840 Descending Denver Center
03:52PM 40.1617 -104.5611 211° Southwest 233 268 9,800 -660 Descending Denver Center
03:53PM 40.1167 -104.5833 201° Southwest 232 267 9,300 -780 Descending Denver TRACON
03:54PM 40.0667 -104.6333 217° Southwest 236 272 8,600 -900 Descending Denver TRACON
03:55PM 40.0167 -104.6667 207° Southwest 220 253 7,600 -1,080 Descending Denver TRACON
03:56PM 39.9667 -104.6833 194° South 171 197 6,500 -960 Descending Denver TRACON
03:56PM 39.9167 -104.6833 180° South 144 166 5,800 -660 Descending Denver TRACON
03:57PM 39.9003 -104.6869 190° South 148 170 5,500 -540 Descending Denver Center